Karshi, Uzbekistan
Current Conditions -  °F | °C
As of 6:30 PM on Friday 19 Dec 2014 (Local Time) from UTSK Reporting Station
Clear Clear  
Wind Chill: 50°   Ceiling: Unl
Heat Index: 50°   Visibility: 5mi
Dew Point: 39°   Wind: 6mph
Humidity: 66%   Direction: 90°E
Pressure: 30.21"   Gusts: NA
Location:  38.86°N, 65.79°E
Report Text: UTSK 191330Z 09005KT 8000 NSC 10/04 Q1023 R16/CLRD70
Loading
Personal Weather Stations






























Interactive Weather Map New forecast layout! Learn more

10-Day Weather Forecast

Advertisements
Track Severe Weather on mobile